Close

Questo sito utlizza cookie. Può leggere come li usiamo nella nostra Privacy Policy.

Ronchi Tower
Ronchi Tower

From Facebook

METAR & TAF

2019/07/16 20:20 LIPQ 162020Z 01003KT CAVOK 21/16 Q1012
2019/07/16 18:25 TAF LIPQ 161700Z 1618/1718 28008KT CAVOK BECMG 1712/1714 21010KT
2019/07/16 20:20 LIPZ 162020Z 26006KT CAVOK 24/16 Q1012 NOSIG
2019/07/16 18:25 TAF LIPZ 161700Z 1618/1724 VRB05KT CAVOK BECMG 1708/1710 14010KT
2019/07/16 20:20 LIPH 162020Z 19001KT CAVOK 23/15 Q1012
2019/07/16 18:21 TAF LIPH 161700Z 1618/1718 VRB05KT CAVOK BECMG 1712/1715 14010KT
2019/07/16 20:20 LIRF 162020Z 33007KT CAVOK 24/12 Q1011 NOSIG
2019/07/16 18:25 TAF LIRF 161700Z 1618/1724 34012KT CAVOK BECMG 1618/1620 03008KT BECMG 1708/1710 26010KT BECMG 1718/1720 VRB05KT
2019/07/16 20:20 LIML 162020Z 19002KT CAVOK 22/16 Q1013 NOSIG
2019/07/16 18:21 TAF LIML 161700Z 1618/1718 VRB05KT CAVOK
2019/07/16 20:20 EDDM 162020Z 34002KT CAVOK 15/10 Q1016 NOSIG
2019/07/16 18:27 TAF EDDM 161700Z 1618/1724 28007KT 9999 SCT030 BECMG 1618/1620 VRB02KT BECMG 1710/1712 32005KT
2019/07/16 20:20 EGSS 162020Z AUTO 16007KT 9999 NCD 21/12 Q1017
2019/07/16 18:09 TAF EGSS 161657Z 1618/1724 VRB03KT 9999 FEW045 BECMG 1622/1701 20010KT PROB30 1702/1707 9000 PROB40 TEMPO 1720/1724 8000 -RA
2019/07/16 20:20 EDDF 162020Z 34005KT 310V030 CAVOK 19/11 Q1016 NOSIG
2019/07/16 18:27 TAF TAF EDDF 161700Z 1618/1724 32006KT CAVOK BECMG 1619/1621 02007KT PROB30 TEMPO 1707/1710 BKN030 TEMPO 1712/1716 32005KT

FlightRadar24

Radar Meteo

Traffic data

Agosto 2018

Passeggeri: 63892-12,9% (rank: 23)
Nazionali 34490 -19,8%
Internazionali 29193 -3,0%

Movimenti: 1307+11,7% (rank: 24)
Tot commerciale 556 -7,2%
Aviazione generale 751 +31,5%

Cargo (tons): 20,6+62,5% (rank: 21)

Gennaio - Agosto 2018

Passeggeri: 507438-3,5% (rank: 23)
Nazionali 322655 -4,9%
Internazionali 182927 -0,7%

Movimenti: 10366-4,25 (rank: 22)
Tot commerciale 5328 -11,0%
Aviazione generale 5038 +4,2%

Cargo (tons): 299,2+61,9% (rank: 20)

Photo

Douglas DC-6B
Douglas DC-6B
Distinct views: 16
Douglas DC-6B
Douglas DC-6B
Distinct views: 85
Douglas DC-6B
Douglas DC-6B
Distinct views: 233
Airbus A320
Airbus A320
Total views: 1612